Time;durP1;ratioP1;P1;durP2;ratioP2;P2;SDS_P1;SDS_P2;PMS_P1;PMS_P2;Temp;Humidity;BMP_temperature;BMP_pressure;BME280_temperature;BME280_humidity;BME280_pressure;Samples;Min_cycle;Max_cycle;Signal;HPM_P1;HPM_P2
2022/09/24 00:00:34;;;;;;;;;;;;;;;21.79;62.75;99298.88;7316751;19;129260;-39
2022/09/24 00:03:00;;;;;;;;;;;;;;;21.82;62.44;99301.19;7315064;19;130517;-37
2022/09/24 00:05:25;;;;;;;;;;;;;;;21.81;62.32;99301.34;7318447;19;128914;-39
2022/09/24 00:07:50;;;;;;;;;;;;;;;21.81;62.89;99296.94;7316330;19;129673;-36
2022/09/24 00:10:15;;;;;;;;;;;;;;;21.80;62.63;99295.28;7318058;19;130140;-38
2022/09/24 00:12:41;;;;;;;;;;;;;;;21.81;62.65;99296.94;7315515;19;129212;-37
2022/09/24 00:15:06;;;;;;;;;;;;;;;21.77;62.71;99290.34;7316647;19;129892;-38
2022/09/24 00:17:31;;;;;;;;;;;;;;;21.79;62.11;99277.94;7316713;19;129525;-38
2022/09/24 00:19:57;;;;;;;;;;;;;;;21.81;62.84;99285.66;7317688;19;129022;-37
2022/09/24 00:22:22;;;;;;;;;;;;;;;21.82;62.78;99284.66;7314912;19;129929;-41
2022/09/24 00:27:31;;;;;;;;;;;;;;;21.80;62.41;99279.59;7317915;19;129886;-40
2022/09/24 00:29:56;;;;;;;;;;;;;;;21.73;62.60;99260.19;7317044;19;129220;-37
2022/09/24 00:32:23;;;;;;;;;;;;;;;21.83;62.82;99273.25;7314589;19;129355;-39
2022/09/24 00:34:50;;;;;;;;;;;;;;;21.83;62.39;99274.03;7317003;19;128952;-40
2022/09/24 00:37:18;;;;;;;;;;;;;;;21.82;62.45;99271.59;7317255;19;129523;-40
2022/09/24 00:39:44;;;;;;;;;;;;;;;21.79;62.18;99270.09;7317933;19;129319;-38
2022/09/24 00:42:09;;;;;;;;;;;;;;;21.75;62.44;99263.47;7315002;19;129372;-38
2022/09/24 00:44:43;;;;;;;;;;;;;;;21.72;62.81;99245.47;7316872;19;129081;-37
2022/09/24 00:47:27;;;;;;;;;;;;;;;21.78;62.73;99251.94;7316135;19;130883;-39
2022/09/24 00:49:59;;;;;;;;;;;;;;;21.81;62.62;99255.09;7318340;19;131409;-37
2022/09/24 00:52:25;;;;;;;;;;;;;;;21.80;62.39;99253.41;7312877;19;129562;-39
2022/09/24 00:54:50;;;;;;;;;;;;;;;21.79;62.60;99254.41;7316504;19;129561;-39
2022/09/24 00:57:15;;;;;;;;;;;;;;;21.83;62.31;99250.50;7315447;19;130104;-37
2022/09/24 00:59:42;;;;;;;;;;;;;;;21.82;62.43;99243.63;7316237;19;129310;-37
2022/09/24 01:02:08;;;;;;;;;;;;;;;21.83;62.57;99247.88;7314012;19;130906;-36
2022/09/24 01:04:33;;;;;;;;;;;;;;;21.81;62.38;99244.63;7316958;19;129151;-38
2022/09/24 01:06:58;;;;;;;;;;;;;;;21.83;62.65;99241.84;7317117;19;129249;-38
2022/09/24 01:09:26;;;;;;;;;;;;;;;21.84;62.27;99239.06;7315669;19;129371;-39
2022/09/24 01:12:03;;;;;;;;;;;;;;;21.74;62.61;99232.22;7316621;19;130421;-36
2022/09/24 01:14:50;;;;;;;;;;;;;;;21.82;62.83;99238.41;7313739;19;147081;-37
2022/09/24 01:17:35;;;;;;;;;;;;;;;21.82;63.00;99235.78;7315910;19;129246;-37
2022/09/24 01:20:13;;;;;;;;;;;;;;;21.84;62.40;99238.25;7315677;19;130408;-41
2022/09/24 01:22:48;;;;;;;;;;;;;;;21.81;61.94;99228.91;7312884;19;130108;-37
2022/09/24 01:25:29;;;;;;;;;;;;;;;21.79;62.84;99230.84;7316601;19;128912;-38
2022/09/24 01:28:09;;;;;;;;;;;;;;;21.78;62.57;99229.19;7315558;19;130837;-37
2022/09/24 01:30:37;;;;;;;;;;;;;;;21.81;62.42;99236.75;7315878;19;129523;-37
2022/09/24 01:33:06;;;;;;;;;;;;;;;21.80;62.72;99232.47;7313345;19;130248;-36
2022/09/24 01:35:36;;;;;;;;;;;;;;;21.80;62.72;99235.09;7315701;19;129419;-40
2022/09/24 01:38:05;;;;;;;;;;;;;;;21.82;62.96;99225.31;7315641;19;129396;-37
2022/09/24 01:40:31;;;;;;;;;;;;;;;21.80;62.32;99234.28;7316038;19;130229;-39
2022/09/24 01:42:58;;;;;;;;;;;;;;;21.84;62.76;99225.16;7313320;19;130311;-38
2022/09/24 01:45:25;;;;;;;;;;;;;;;21.83;62.62;99220.91;7316205;19;129338;-39
2022/09/24 01:47:50;;;;;;;;;;;;;;;21.82;62.40;99222.69;7316185;19;129965;-37
2022/09/24 01:50:17;;;;;;;;;;;;;;;21.84;62.75;99220.75;7315366;19;129227;-38
2022/09/24 01:52:52;;;;;;;;;;;;;;;21.81;62.38;99218.44;7311737;19;129218;-39
2022/09/24 01:55:19;;;;;;;;;;;;;;;21.73;63.04;99205.22;7315518;19;129169;-37
2022/09/24 01:57:49;;;;;;;;;;;;;;;21.83;62.68;99211.25;7314996;19;129277;-38
2022/09/24 02:00:16;;;;;;;;;;;;;;;21.71;62.53;99196.72;7315659;19;129970;-38
2022/09/24 02:02:47;;;;;;;;;;;;;;;21.81;62.52;99209.75;7312470;19;129271;-37
2022/09/24 02:05:19;;;;;;;;;;;;;;;21.83;62.78;99213.06;7315137;19;129012;-37
2022/09/24 02:07:53;;;;;;;;;;;;;;;21.86;62.49;99205.72;7315300;19;129438;-38
2022/09/24 02:10:19;;;;;;;;;;;;;;;21.74;62.48;99200.84;7313626;19;129235;-38
2022/09/24 02:12:46;;;;;;;;;;;;;;;21.69;62.64;99196.06;7309585;19;129382;-38
2022/09/24 02:15:16;;;;;;;;;;;;;;;21.80;62.26;99198.47;7315107;19;128978;-38
2022/09/24 02:17:44;;;;;;;;;;;;;;;21.83;62.60;99203.38;7314556;19;128923;-38
2022/09/24 02:20:13;;;;;;;;;;;;;;;21.79;62.95;99199.44;7315370;19;129654;-37
2022/09/24 02:22:40;;;;;;;;;;;;;;;21.81;62.85;99212.38;7310566;19;129207;-39
2022/09/24 02:25:08;;;;;;;;;;;;;;;21.81;62.38;99207.97;7314512;19;129724;-37
2022/09/24 02:27:34;;;;;;;;;;;;;;;21.79;62.67;99209.91;7312457;19;129969;-37
2022/09/24 02:29:59;;;;;;;;;;;;;;;21.81;62.74;99207.97;7314155;19;132009;-39
2022/09/24 02:32:26;;;;;;;;;;;;;;;21.81;62.61;99205.38;7312220;19;129316;-36
2022/09/24 02:34:54;;;;;;;;;;;;;;;21.82;62.36;99204.38;7313582;19;131125;-38
2022/09/24 02:37:21;;;;;;;;;;;;;;;21.81;63.02;99209.75;7314602;19;129280;-38
2022/09/24 02:39:47;;;;;;;;;;;;;;;21.81;62.66;99207.97;7314208;19;130239;-40
2022/09/24 02:42:13;;;;;;;;;;;;;;;21.82;63.03;99196.53;7310643;19;130145;-37
2022/09/24 02:44:38;;;;;;;;;;;;;;;21.83;62.32;99192.94;7314447;19;129644;-38
2022/09/24 02:47:05;;;;;;;;;;;;;;;21.80;62.95;99195.84;7314051;19;129160;-37
2022/09/24 02:49:30;;;;;;;;;;;;;;;21.83;62.61;99197.34;7314585;19;129260;-39
2022/09/24 02:51:56;;;;;;;;;;;;;;;21.81;62.91;99192.28;7311964;19;129935;-38
2022/09/24 02:54:21;;;;;;;;;;;;;;;21.80;62.25;99195.84;7313231;19;129423;-37
2022/09/24 02:56:47;;;;;;;;;;;;;;;21.83;62.92;99186.88;7312155;19;129664;-38
2022/09/24 02:59:12;;;;;;;;;;;;;;;21.78;62.80;99186.53;7313623;19;130343;-38
2022/09/24 03:01:37;;;;;;;;;;;;;;;21.78;62.53;99182.09;7312297;19;129681;-39
2022/09/24 03:04:03;;;;;;;;;;;;;;;21.79;62.42;99181.13;7312972;19;129608;-38
2022/09/24 03:06:29;;;;;;;;;;;;;;;21.82;62.28;99183.44;7314239;19;128946;-38
2022/09/24 03:08:54;;;;;;;;;;;;;;;21.80;62.36;99180.16;7311740;19;129450;-39
2022/09/24 03:11:23;;;;;;;;;;;;;;;21.80;63.12;99180.16;7311957;19;129577;-37
2022/09/24 03:13:48;;;;;;;;;;;;;;;21.79;63.01;99178.50;7311782;19;129201;-41
2022/09/24 03:16:14;;;;;;;;;;;;;;;21.81;63.04;99176.56;7311979;19;129987;-38
2022/09/24 03:18:39;;;;;;;;;;;;;;;21.80;62.64;99182.75;7311142;19;129113;-37
2022/09/24 03:21:09;;;;;;;;;;;;;;;21.71;63.08;99152.25;7311465;19;129414;-38
2022/09/24 03:23:35;;;;;;;;;;;;;;;21.80;63.14;99172.28;7312328;19;130490;-39
2022/09/24 03:26:00;;;;;;;;;;;;;;;21.83;63.06;99174.59;7311607;19;129037;-39
2022/09/24 03:28:25;;;;;;;;;;;;;;;21.82;62.27;99172.97;7312902;19;129178;-37
2022/09/24 03:31:00;;;;;;;;;;;;;;;21.80;62.37;99172.28;7312596;19;130919;-42
2022/09/24 03:33:25;;;;;;;;;;;;;;;21.79;62.65;99168.06;7310974;19;129569;-38
2022/09/24 03:35:54;;;;;;;;;;;;;;;21.81;62.78;99171.34;7313058;19;129081;-40
2022/09/24 03:38:19;;;;;;;;;;;;;;;21.80;62.89;99161.00;7312053;19;129581;-38
2022/09/24 03:40:44;;;;;;;;;;;;;;;21.81;63.06;99162.66;7310976;19;131593;-37
2022/09/24 03:43:09;;;;;;;;;;;;;;;21.81;62.45;99170.50;7309207;19;129070;-37
2022/09/24 03:45:34;;;;;;;;;;;;;;;21.84;62.93;99154.50;7312988;19;129818;-37
2022/09/24 03:48:00;;;;;;;;;;;;;;;21.83;62.33;99155.50;7312940;19;129491;-38
2022/09/24 03:50:25;;;;;;;;;;;;;;;21.83;63.11;99155.50;7312349;19;129676;-38
2022/09/24 03:52:50;;;;;;;;;;;;;;;21.83;62.57;99152.88;7309146;19;129169;-37
2022/09/24 03:55:15;;;;;;;;;;;;;;;21.82;62.61;99152.03;7312047;19;130040;-38
2022/09/24 03:57:41;;;;;;;;;;;;;;;21.82;62.29;99152.03;7309862;19;129787;-38
2022/09/24 04:00:06;;;;;;;;;;;;;;;21.83;62.89;99148.44;7311437;19;131038;-38
2022/09/24 04:02:31;;;;;;;;;;;;;;;21.83;62.65;99147.63;7306629;19;129254;-39
2022/09/24 04:04:57;;;;;;;;;;;;;;;21.83;62.51;99147.63;7311871;19;129138;-38
2022/09/24 04:07:23;;;;;;;;;;;;;;;21.84;62.04;99144.88;7311137;19;130030;-38
2022/09/24 04:09:48;;;;;;;;;;;;;;;21.83;62.44;99145.03;7310731;19;129289;-38
2022/09/24 04:12:13;;;;;;;;;;;;;;;21.79;62.36;99139.25;7308299;19;129187;-37
2022/09/24 04:14:39;;;;;;;;;;;;;;;21.79;62.65;99136.66;7311239;19;128826;-38
2022/09/24 04:17:04;;;;;;;;;;;;;;;21.82;63.09;99135.50;7309692;19;131748;-38
2022/09/24 04:19:30;;;;;;;;;;;;;;;21.84;62.58;99139.63;7311283;19;129235;-38
2022/09/24 04:21:56;;;;;;;;;;;;;;;21.73;62.83;99118.88;7309041;19;130930;-37
2022/09/24 04:24:21;;;;;;;;;;;;;;;21.82;62.84;99141.56;7310966;19;130427;-38
2022/09/24 04:26:46;;;;;;;;;;;;;;;21.86;62.30;99142.09;7310816;19;129514;-39
2022/09/24 04:29:12;;;;;;;;;;;;;;;21.82;62.80;99136.34;7310800;19;129488;-37
2022/09/24 04:31:38;;;;;;;;;;;;;;;21.73;62.43;99126.75;7310268;19;128800;-38
2022/09/24 04:34:03;;;;;;;;;;;;;;;21.81;62.51;99145.19;7310855;19;128783;-37
2022/09/24 04:36:28;;;;;;;;;;;;;;;21.74;62.46;99136.25;7312997;19;129145;-38
2022/09/24 04:38:55;;;;;;;;;;;;;;;21.83;63.12;99140.59;7316891;19;129696;-37
2022/09/24 04:41:20;;;;;;;;;;;;;;;21.86;62.98;99147.31;7315628;19;129176;-38
2022/09/24 04:43:46;;;;;;;;;;;;;;;21.83;62.93;99142.41;7315870;19;130323;-37
2022/09/24 04:46:11;;;;;;;;;;;;;;;21.83;62.41;99142.41;7316170;19;130670;-38
2022/09/24 04:48:37;;;;;;;;;;;;;;;21.73;62.97;99121.50;7317032;19;130614;-39
2022/09/24 04:51:04;;;;;;;;;;;;;;;21.82;62.27;99133.72;7317037;19;128907;-37
2022/09/24 04:53:30;;;;;;;;;;;;;;;21.83;63.15;99132.75;7317231;19;129660;-38
2022/09/24 04:55:55;;;;;;;;;;;;;;;21.84;62.81;99139.63;7317011;19;129602;-37
2022/09/24 04:58:20;;;;;;;;;;;;;;;21.87;62.45;99134.09;7315983;19;129469;-37
2022/09/24 05:00:46;;;;;;;;;;;;;;;21.84;62.74;99128.34;7315957;19;129501;-37
2022/09/24 05:03:11;;;;;;;;;;;;;;;21.79;62.71;99130.59;7310160;19;129737;-38
2022/09/24 05:05:37;;;;;;;;;;;;;;;21.86;62.37;99132.47;7316063;19;130482;-37
2022/09/24 05:08:03;;;;;;;;;;;;;;;21.81;62.58;99124.25;7314961;19;129535;-38
2022/09/24 05:10:30;;;;;;;;;;;;;;;21.82;62.83;99128.50;7316954;19;129750;-38
2022/09/24 05:12:55;;;;;;;;;;;;;;;21.83;62.43;99131.94;7309234;19;130941;-39
2022/09/24 05:15:20;;;;;;;;;;;;;;;21.84;63.13;99129.16;7314522;19;130006;-36
2022/09/24 05:17:46;;;;;;;;;;;;;;;21.82;63.01;99128.50;7315090;19;129285;-37
2022/09/24 05:20:12;;;;;;;;;;;;;;;21.86;62.90;99132.47;7311000;19;129445;-38
2022/09/24 05:22:41;;;;;;;;;;;;;;;21.82;62.48;99125.88;7311734;19;129641;-38
2022/09/24 05:25:06;;;;;;;;;;;;;;;21.81;62.17;99132.09;7312600;19;130053;-38
2022/09/24 05:27:31;;;;;;;;;;;;;;;21.82;62.85;99128.50;7314094;19;131009;-40
2022/09/24 05:29:57;;;;;;;;;;;;;;;21.83;62.64;99137.97;7315369;19;129454;-37
2022/09/24 05:32:23;;;;;;;;;;;;;;;21.79;62.96;99123.56;7311847;19;129613;-38
2022/09/24 05:34:49;;;;;;;;;;;;;;;21.86;63.12;99137.69;7315107;19;130160;-39
2022/09/24 05:37:15;;;;;;;;;;;;;;;21.84;62.40;99144.88;7311772;19;129818;-38
2022/09/24 05:39:40;;;;;;;;;;;;;;;21.80;62.68;99140.91;7315069;19;129507;-39
2022/09/24 05:42:07;;;;;;;;;;;;;;;21.73;62.82;99133.78;7312795;19;129316;-37
2022/09/24 05:44:32;;;;;;;;;;;;;;;21.84;62.61;99149.28;7312524;19;130025;-37
2022/09/24 05:46:57;;;;;;;;;;;;;;;21.83;62.38;99148.44;7313486;19;131091;-39
2022/09/24 05:49:22;;;;;;;;;;;;;;;21.84;63.06;99152.72;7308265;19;130671;-37
2022/09/24 05:51:48;;;;;;;;;;;;;;;21.81;62.62;99160.88;7311809;19;130085;-39
2022/09/24 05:54:15;;;;;;;;;;;;;;;21.85;62.56;99172.66;7315355;19;128989;-37
2022/09/24 05:56:40;;;;;;;;;;;;;;;21.81;62.45;99168.72;7315635;19;130377;-37
2022/09/24 05:59:06;;;;;;;;;;;;;;;21.83;63.10;99174.59;7314074;19;129313;-37
2022/09/24 06:01:31;;;;;;;;;;;;;;;21.83;62.51;99174.59;7312042;19;129902;-41
2022/09/24 06:03:57;;;;;;;;;;;;;;;21.81;62.90;99170.50;7314387;19;129296;-39
2022/09/24 06:06:23;;;;;;;;;;;;;;;21.81;62.71;99163.50;7313261;19;129292;-38
2022/09/24 06:08:48;;;;;;;;;;;;;;;21.82;62.42;99159.06;7311324;19;128792;-37
2022/09/24 06:11:13;;;;;;;;;;;;;;;21.70;63.09;99142.75;7313097;19;128904;-39
2022/09/24 06:13:39;;;;;;;;;;;;;;;21.81;63.02;99155.66;7313660;19;130782;-36
2022/09/24 06:16:06;;;;;;;;;;;;;;;21.83;63.03;99158.91;7312850;19;130406;-37
2022/09/24 06:18:39;;;;;;;;;;;;;;;21.85;62.51;99166.59;7314078;19;129345;-40
2022/09/24 06:21:14;;;;;;;;;;;;;;;21.83;62.76;99172.00;7312534;19;129140;-38
2022/09/24 06:23:40;;;;;;;;;;;;;;;21.82;62.77;99157.28;7312526;19;130214;-37
2022/09/24 06:26:08;;;;;;;;;;;;;;;21.82;62.91;99167.75;7314592;19;130545;-39
2022/09/24 06:28:33;;;;;;;;;;;;;;;21.80;62.17;99174.91;7314090;19;128738;-38
2022/09/24 06:30:59;;;;;;;;;;;;;;;21.81;62.63;99160.88;7313146;19;129697;-37
2022/09/24 06:33:24;;;;;;;;;;;;;;;21.85;62.72;99172.66;7312624;19;129886;-37
2022/09/24 06:35:50;;;;;;;;;;;;;;;21.83;62.99;99174.59;7313434;19;130258;-39
2022/09/24 06:38:16;;;;;;;;;;;;;;;21.82;62.51;99167.75;7311626;19;129003;-37
2022/09/24 06:40:42;;;;;;;;;;;;;;;21.82;62.97;99164.28;7312582;19;130572;-37
2022/09/24 06:43:08;;;;;;;;;;;;;;;21.82;62.44;99161.69;7306866;19;129959;-38
2022/09/24 06:45:34;;;;;;;;;;;;;;;21.82;62.36;99162.50;7314291;19;129420;-38
2022/09/24 06:48:00;;;;;;;;;;;;;;;21.83;63.02;99161.53;7312996;19;129197;-37
2022/09/24 06:50:26;;;;;;;;;;;;;;;21.80;62.57;99164.44;7315036;19;129203;-36
2022/09/24 06:52:51;;;;;;;;;;;;;;;21.83;62.57;99161.53;7310386;19;129697;-38
2022/09/24 06:55:17;;;;;;;;;;;;;;;21.84;62.91;99160.56;7314808;19;130820;-38
2022/09/24 06:57:43;;;;;;;;;;;;;;;21.80;62.95;99153.97;7313245;19;129200;-40
2022/09/24 07:00:09;;;;;;;;;;;;;;;21.84;62.76;99155.34;7312054;19;129279;-37
2022/09/24 07:02:34;;;;;;;;;;;;;;;21.84;63.06;99159.75;7309327;19;129859;-37
2022/09/24 07:04:59;;;;;;;;;;;;;;;21.80;63.02;99153.97;7312309;19;130621;-38
2022/09/24 07:07:33;;;;;;;;;;;;;;;21.80;63.07;99156.59;7314436;19;129474;-37
2022/09/24 07:10:04;;;;;;;;;;;;;;;21.83;62.27;99161.53;7312183;19;129175;-39
2022/09/24 07:12:30;;;;;;;;;;;;;;;21.82;62.44;99161.69;7310558;19;131547;-39
2022/09/24 07:14:56;;;;;;;;;;;;;;;21.83;62.54;99168.56;7312370;19;129700;-37
2022/09/24 07:17:22;;;;;;;;;;;;;;;21.84;62.72;99171.03;7314139;19;129245;-37
2022/09/24 07:19:47;;;;;;;;;;;;;;;21.82;63.11;99172.97;7309982;19;129469;-39
2022/09/24 07:22:12;;;;;;;;;;;;;;;21.83;63.06;99169.38;7308009;19;129325;-38
2022/09/24 07:24:37;;;;;;;;;;;;;;;21.82;62.55;99156.44;7312028;19;132049;-39
2022/09/24 07:27:03;;;;;;;;;;;;;;;21.82;62.50;99157.28;7311052;19;130884;-38
2022/09/24 07:29:29;;;;;;;;;;;;;;;21.83;62.67;99152.88;7314133;19;129208;-37
2022/09/24 07:31:54;;;;;;;;;;;;;;;21.82;63.02;99152.03;7310312;19;129660;-38
2022/09/24 07:34:19;;;;;;;;;;;;;;;21.71;62.89;99139.19;7313128;19;129412;-37
2022/09/24 07:36:44;;;;;;;;;;;;;;;21.79;62.39;99156.75;7309151;19;130043;-36
2022/09/24 07:39:09;;;;;;;;;;;;;;;21.81;63.00;99158.25;7311524;19;129275;-39
2022/09/24 07:41:35;;;;;;;;;;;;;;;21.80;63.00;99148.75;7309941;19;131066;-37
2022/09/24 07:44:00;;;;;;;;;;;;;;;21.82;63.09;99157.28;7312612;19;129828;-38
2022/09/24 07:46:26;;;;;;;;;;;;;;;21.82;62.76;99154.66;7313474;19;129164;-40
2022/09/24 07:48:53;;;;;;;;;;;;;;;21.84;62.66;99157.94;7312463;19;129160;-38
2022/09/24 07:51:18;;;;;;;;;;;;;;;21.72;62.78;99143.41;7308854;19;129273;-40
2022/09/24 07:53:43;;;;;;;;;;;;;;;21.83;62.63;99161.53;7310478;19;129273;-38
2022/09/24 07:56:08;;;;;;;;;;;;;;;21.83;63.12;99161.53;7310542;19;129749;-39
2022/09/24 07:58:34;;;;;;;;;;;;;;;21.81;63.22;99163.50;7312781;19;129052;-37
2022/09/24 08:01:00;;;;;;;;;;;;;;;21.74;62.39;99154.56;7311827;19;129286;-37
2022/09/24 08:03:25;;;;;;;;;;;;;;;21.83;62.98;99172.00;7308481;19;130188;-38
2022/09/24 08:05:55;;;;;;;;;;;;;;;21.84;62.75;99173.66;7310134;19;129294;-39
2022/09/24 08:08:20;;;;;;;;;;;;;;;21.82;62.61;99162.50;7311713;19;128994;-39
2022/09/24 08:10:45;;;;;;;;;;;;;;;21.83;62.38;99163.34;7311680;19;129320;-39
2022/09/24 08:13:11;;;;;;;;;;;;;;;21.83;62.27;99165.97;7312988;19;129568;-40
2022/09/24 08:15:36;;;;;;;;;;;;;;;21.82;62.36;99165.13;7317684;19;129282;-36
2022/09/24 08:18:02;;;;;;;;;;;;;;;21.83;62.32;99158.91;7317044;19;129053;-41
2022/09/24 08:20:28;;;;;;;;;;;;;;;21.82;62.31;99161.69;7317614;19;129198;-38
2022/09/24 08:22:53;;;;;;;;;;;;;;;21.85;62.86;99148.28;7314059;19;129211;-39
2022/09/24 08:25:18;;;;;;;;;;;;;;;21.82;62.55;99144.19;7314571;19;129412;-38
2022/09/24 08:27:44;;;;;;;;;;;;;;;21.85;62.28;99154.34;7318446;19;129516;-38
2022/09/24 08:30:09;;;;;;;;;;;;;;;21.86;62.38;99153.41;7316514;19;130192;-42
2022/09/24 08:32:34;;;;;;;;;;;;;;;21.85;62.32;99145.66;7314611;19;130293;-38
2022/09/24 08:35:00;;;;;;;;;;;;;;;21.84;62.76;99150.09;7316571;19;129268;-37
2022/09/24 08:37:26;;;;;;;;;;;;;;;21.83;62.59;99148.44;7318429;19;129365;-38
2022/09/24 08:39:51;;;;;;;;;;;;;;;21.81;62.84;99149.56;7318309;19;129155;-40
2022/09/24 08:42:35;;;;;;;;;;;;;;;21.84;62.40;99149.28;7314819;19;130101;-38
2022/09/24 08:47:53;;;;;;;;;;;;;;;21.82;62.53;99152.03;7318745;19;129609;-38
2022/09/24 08:50:27;;;;;;;;;;;;;;;21.80;62.29;99151.38;7318139;19;129068;-38
2022/09/24 08:52:58;;;;;;;;;;;;;;;21.82;62.31;99151.22;7312035;19;129869;-39
2022/09/24 08:55:23;;;;;;;;;;;;;;;21.84;62.79;99154.50;7313801;19;129098;-41
2022/09/24 08:58:21;;;;;;;;;;;;;;;21.78;62.38;99152.50;7314386;19;128877;-39
2022/09/24 09:00:46;;;;;;;;;;;;;;;21.77;62.11;99149.06;7319000;19;131382;-37
2022/09/24 09:03:23;;;;;;;;;;;;;;;21.81;62.87;99149.56;7314418;19;129243;-37
2022/09/24 09:05:52;;;;;;;;;;;;;;;21.83;62.77;99152.88;7316791;19;129089;-38
2022/09/24 09:08:44;;;;;;;;;;;;;;;21.84;62.78;99155.34;7317010;19;129363;-39
2022/09/24 09:11:12;;;;;;;;;;;;;;;21.83;62.31;99152.88;7316352;19;129372;-37
2022/09/24 09:13:44;;;;;;;;;;;;;;;21.71;62.47;99141.78;7316987;19;129529;-38
2022/09/24 09:16:25;;;;;;;;;;;;;;;21.75;62.67;99145.72;7317578;19;129180;-38
2022/09/24 09:18:53;;;;;;;;;;;;;;;21.80;62.38;99153.97;7316850;19;129534;-40
2022/09/24 09:21:25;;;;;;;;;;;;;;;21.84;62.81;99152.72;7315028;19;129306;-40
2022/09/24 09:23:51;;;;;;;;;;;;;;;21.83;62.32;99161.53;7313738;19;130034;-37
2022/09/24 09:26:18;;;;;;;;;;;;;;;21.82;62.62;99157.28;7316759;19;129312;-39
2022/09/24 09:28:43;;;;;;;;;;;;;;;21.82;62.77;99172.13;7317670;19;128933;-38
2022/09/24 09:31:17;;;;;;;;;;;;;;;21.80;62.32;99168.84;7317354;19;129691;-39
2022/09/24 09:33:58;;;;;;;;;;;;;;;21.79;62.96;99162.81;7316154;19;129229;-40
2022/09/24 09:36:26;;;;;;;;;;;;;;;21.79;62.75;99157.59;7316951;19;129259;-39
2022/09/24 09:38:58;;;;;;;;;;;;;;;21.86;62.40;99152.56;7317601;19;129743;-38
2022/09/24 09:41:53;;;;;;;;;;;;;;;21.84;62.22;99154.50;7315263;19;129342;-40
2022/09/24 09:44:21;;;;;;;;;;;;;;;21.86;62.63;99152.56;7312978;19;131150;-38
2022/09/24 09:46:50;;;;;;;;;;;;;;;21.84;62.52;99155.34;7317976;19;129323;-38
2022/09/24 09:49:16;;;;;;;;;;;;;;;21.83;62.59;99145.03;7315604;19;129334;-38
2022/09/24 09:51:43;;;;;;;;;;;;;;;21.81;62.10;99154.81;7313692;19;130039;-39
2022/09/24 09:54:08;;;;;;;;;;;;;;;21.80;62.03;99133.03;7314086;19;129516;-38
2022/09/24 09:56:51;;;;;;;;;;;;;;;21.81;62.11;99141.72;7316104;19;129496;-38
2022/09/24 09:59:18;;;;;;;;;;;;;;;21.84;62.84;99142.25;7316387;19;128891;-37
2022/09/24 10:01:45;;;;;;;;;;;;;;;21.83;62.06;99142.41;7313309;19;131068;-37
2022/09/24 10:04:23;;;;;;;;;;;;;;;21.83;62.31;99145.03;7315198;19;129685;-39
2022/09/24 10:06:48;;;;;;;;;;;;;;;21.81;62.29;99139.94;7314795;19;128829;-39
2022/09/24 10:09:21;;;;;;;;;;;;;;;21.82;62.78;99136.34;7316213;19;128996;-39
2022/09/24 10:11:46;;;;;;;;;;;;;;;21.84;62.93;99125.72;7313252;19;130672;-39
2022/09/24 10:14:13;;;;;;;;;;;;;;;21.85;62.16;99132.56;7314880;19;129638;-40
2022/09/24 10:16:43;;;;;;;;;;;;;;;21.85;62.86;99129.97;7316694;19;129095;-37
2022/09/24 10:19:18;;;;;;;;;;;;;;;21.85;62.08;99128.19;7316793;19;129717;-40
2022/09/24 10:21:43;;;;;;;;;;;;;;;21.82;62.82;99128.50;7312507;19;129158;-39
2022/09/24 10:24:15;;;;;;;;;;;;;;;21.82;62.67;99128.50;7314599;19;129500;-38
2022/09/24 10:26:41;;;;;;;;;;;;;;;21.84;62.68;99128.34;7315767;19;128925;-40
2022/09/24 10:32:24;;;;;;;;;;;;;;;21.81;62.52;99126.84;7310711;19;129260;-37
2022/09/24 10:34:58;;;;;;;;;;;;;;;21.82;62.40;99130.28;7313345;19;129703;-38
2022/09/24 10:37:23;;;;;;;;;;;;;;;21.81;62.40;99124.25;7314697;19;128825;-39
2022/09/24 10:40:02;;;;;;;;;;;;;;;21.83;62.48;99131.94;7315690;19;128810;-41
2022/09/24 10:42:28;;;;;;;;;;;;;;;21.85;62.65;99129.97;7311241;19;129276;-39
2022/09/24 10:44:56;;;;;;;;;;;;;;;21.86;62.54;99124.59;7313805;19;130456;-37
2022/09/24 10:47:26;;;;;;;;;;;;;;;21.84;62.82;99131.78;7314256;19;128789;-39
2022/09/24 10:49:51;;;;;;;;;;;;;;;21.87;62.63;99120.16;7315883;19;128925;-37
2022/09/24 10:52:28;;;;;;;;;;;;;;;21.86;62.89;99127.22;7311504;19;129226;-39
2022/09/24 10:55:01;;;;;;;;;;;;;;;21.73;62.23;99105.81;7314661;19;130052;-39
2022/09/24 10:57:31;;;;;;;;;;;;;;;21.85;62.30;99125.56;7315783;19;129887;-37
2022/09/24 10:59:56;;;;;;;;;;;;;;;21.74;62.75;99107.47;7315788;19;129479;-38
2022/09/24 11:02:30;;;;;;;;;;;;;;;21.84;62.51;99121.31;7311757;19;129088;-39
2022/09/24 11:05:04;;;;;;;;;;;;;;;21.84;62.27;99121.31;7314414;19;129420;-39
2022/09/24 11:07:29;;;;;;;;;;;;;;;21.83;62.25;99122.25;7314470;19;129152;-38
2022/09/24 11:09:54;;;;;;;;;;;;;;;21.81;62.54;99124.25;7314201;19;129228;-38
2022/09/24 11:12:30;;;;;;;;;;;;;;;21.74;62.50;99104.03;7310732;19;129645;-37
2022/09/24 11:15:09;;;;;;;;;;;;;;;21.74;62.59;99107.47;7312521;19;131018;-38
2022/09/24 11:17:46;;;;;;;;;;;;;;;21.84;62.31;99113.47;7313401;19;129219;-38
2022/09/24 11:20:33;;;;;;;;;;;;;;;21.80;62.37;99114.72;7314727;19;129126;-39
2022/09/24 11:23:13;;;;;;;;;;;;;;;21.84;62.25;99118.69;7310646;19;129542;-39
2022/09/24 11:25:53;;;;;;;;;;;;;;;21.83;62.16;99109.19;7313633;19;129232;-38
2022/09/24 11:28:37;;;;;;;;;;;;;;;21.86;62.46;99101.06;7314296;19;129306;-37
2022/09/24 11:31:05;;;;;;;;;;;;;;;21.86;62.75;99110.69;7314088;19;128972;-39
2022/09/24 11:33:33;;;;;;;;;;;;;;;21.83;62.55;99106.56;7312638;19;129276;-39
2022/09/24 11:36:09;;;;;;;;;;;;;;;21.85;62.08;99111.66;7313097;19;129340;-37
2022/09/24 11:39:03;;;;;;;;;;;;;;;21.85;62.15;99101.19;7313694;19;128930;-40
2022/09/24 11:41:58;;;;;;;;;;;;;;;21.85;62.51;99104.63;7310272;19;129673;-38
2022/09/24 11:44:26;;;;;;;;;;;;;;;21.85;62.94;99099.38;7312231;19;129231;-37
2022/09/24 11:47:10;;;;;;;;;;;;;;;21.85;62.99;99098.56;7310737;19;129230;-38
2022/09/24 11:49:43;;;;;;;;;;;;;;;21.86;62.48;99101.06;7313156;19;128930;-38
2022/09/24 11:52:28;;;;;;;;;;;;;;;21.84;62.85;99095.16;7311223;19;129554;-40
2022/09/24 11:54:59;;;;;;;;;;;;;;;21.84;62.44;99107.41;7312748;19;129140;-38
2022/09/24 11:57:28;;;;;;;;;;;;;;;21.82;62.38;99097.09;7313167;19;129102;-40
2022/09/24 11:59:58;;;;;;;;;;;;;;;21.81;62.68;99098.06;7312701;19;129025;-39
2022/09/24 12:02:33;;;;;;;;;;;;;;;21.78;63.05;99087.09;7309055;19;128838;-39
2022/09/24 12:05:05;;;;;;;;;;;;;;;21.85;62.61;99099.38;7311574;19;129103;-38
2022/09/24 12:07:30;;;;;;;;;;;;;;;21.86;62.53;99101.06;7311864;19;129538;-39
2022/09/24 12:10:02;;;;;;;;;;;;;;;21.74;63.05;99085.69;7311497;19;129281;-38
2022/09/24 12:12:31;;;;;;;;;;;;;;;21.82;62.43;99104.94;7308221;19;129471;-40
2022/09/24 12:15:00;;;;;;;;;;;;;;;21.81;62.21;99092.84;7312542;19;129368;-38
2022/09/24 12:17:31;;;;;;;;;;;;;;;21.84;62.84;99097.75;7310571;19;129849;-39
2022/09/24 12:19:59;;;;;;;;;;;;;;;21.73;62.80;99078.84;7312478;19;129410;-38
2022/09/24 12:22:26;;;;;;;;;;;;;;;21.82;62.68;99084.00;7309228;19;129422;-36
2022/09/24 12:24:52;;;;;;;;;;;;;;;21.82;62.66;99084.00;7311915;19;129562;-39
2022/09/24 12:27:23;;;;;;;;;;;;;;;21.84;62.64;99083.84;7311474;19;129184;-39
2022/09/24 12:32:55;;;;;;;;;;;;;;;21.81;63.02;99071.91;7308995;19;129737;-39
2022/09/24 12:35:29;;;;;;;;;;;;;;;21.83;62.43;99069.13;7311220;19;130855;-36
2022/09/24 12:38:11;;;;;;;;;;;;;;;21.82;62.44;99063.06;7310956;19;130192;-39
2022/09/24 12:40:49;;;;;;;;;;;;;;;21.83;62.61;99061.28;7312328;19;128994;-39
2022/09/24 12:43:27;;;;;;;;;;;;;;;21.84;62.55;99070.75;7304777;19;129188;-40
2022/09/24 12:46:00;;;;;;;;;;;;;;;21.84;62.39;99065.53;7310439;19;129765;-42
2022/09/24 12:48:26;;;;;;;;;;;;;;;21.82;62.28;99072.69;7310922;19;129704;-38
2022/09/24 12:50:57;;;;;;;;;;;;;;;21.85;62.41;99062.75;7311123;19;128750;-40
2022/09/24 12:53:26;;;;;;;;;;;;;;;21.84;62.78;99066.34;7309605;19;129267;-39